sensor_id;sensor_type;location;lat;lon;timestamp;P1;durP1;ratioP1;P2;durP2;ratioP2
75441;SDS011;64019;48.312;14.226;2023-02-01T00:01:57;9.73;;;3.83;;
75441;SDS011;64019;48.312;14.226;2023-02-01T00:04:23;10.90;;;3.77;;
75441;SDS011;64019;48.312;14.226;2023-02-01T00:06:48;6.63;;;3.63;;
75441;SDS011;64019;48.312;14.226;2023-02-01T00:09:14;12.20;;;4.30;;
75441;SDS011;64019;48.312;14.226;2023-02-01T00:11:40;6.67;;;3.57;;
75441;SDS011;64019;48.312;14.226;2023-02-01T00:14:05;6.53;;;3.40;;
75441;SDS011;64019;48.312;14.226;2023-02-01T00:16:31;7.57;;;4.03;;
75441;SDS011;64019;48.312;14.226;2023-02-01T00:18:58;8.50;;;3.40;;
75441;SDS011;64019;48.312;14.226;2023-02-01T00:50:30;7.57;;;3.53;;
75441;SDS011;64019;48.312;14.226;2023-02-01T00:56:34;9.27;;;4.43;;
75441;SDS011;64019;48.312;14.226;2023-02-01T00:59:45;9.30;;;4.10;;
75441;SDS011;64019;48.312;14.226;2023-02-01T01:02:37;8.13;;;3.97;;
75441;SDS011;64019;48.312;14.226;2023-02-01T01:43:44;8.40;;;4.50;;
75441;SDS011;64019;48.312;14.226;2023-02-01T01:57:57;8.57;;;4.37;;
75441;SDS011;64019;48.312;14.226;2023-02-01T03:17:43;6.13;;;3.40;;
75441;SDS011;64019;48.312;14.226;2023-02-01T03:23:39;4.67;;;2.90;;
75441;SDS011;64019;48.312;14.226;2023-02-01T04:44:58;4.30;;;2.40;;
75441;SDS011;64019;48.312;14.226;2023-02-01T04:47:24;4.73;;;2.67;;
75441;SDS011;64019;48.312;14.226;2023-02-01T04:49:50;9.07;;;2.83;;
75441;SDS011;64019;48.312;14.226;2023-02-01T04:52:15;5.93;;;2.97;;
75441;SDS011;64019;48.312;14.226;2023-02-01T04:54:41;4.10;;;2.63;;
75441;SDS011;64019;48.312;14.226;2023-02-01T04:57:06;5.07;;;2.80;;
75441;SDS011;64019;48.312;14.226;2023-02-01T04:59:32;5.40;;;2.90;;
75441;SDS011;64019;48.312;14.226;2023-02-01T05:01:58;6.33;;;2.53;;
75441;SDS011;64019;48.312;14.226;2023-02-01T05:04:23;7.50;;;3.43;;
75441;SDS011;64019;48.312;14.226;2023-02-01T05:06:49;7.10;;;3.67;;
75441;SDS011;64019;48.312;14.226;2023-02-01T05:09:15;7.20;;;3.53;;
75441;SDS011;64019;48.312;14.226;2023-02-01T05:11:40;5.50;;;3.30;;
75441;SDS011;64019;48.312;14.226;2023-02-01T05:14:25;5.40;;;3.43;;
75441;SDS011;64019;48.312;14.226;2023-02-01T05:16:50;4.83;;;3.13;;
75441;SDS011;64019;48.312;14.226;2023-02-01T05:19:16;6.10;;;3.83;;
75441;SDS011;64019;48.312;14.226;2023-02-01T05:21:42;7.63;;;3.60;;
75441;SDS011;64019;48.312;14.226;2023-02-01T05:24:08;7.23;;;3.80;;
75441;SDS011;64019;48.312;14.226;2023-02-01T05:26:44;7.00;;;3.33;;
75441;SDS011;64019;48.312;14.226;2023-02-01T05:29:10;7.53;;;4.13;;
75441;SDS011;64019;48.312;14.226;2023-02-01T05:31:36;9.50;;;3.67;;
75441;SDS011;64019;48.312;14.226;2023-02-01T05:34:02;4.60;;;3.20;;
75441;SDS011;64019;48.312;14.226;2023-02-01T05:36:28;9.27;;;3.20;;
75441;SDS011;64019;48.312;14.226;2023-02-01T05:38:54;7.57;;;3.30;;
75441;SDS011;64019;48.312;14.226;2023-02-01T05:41:20;8.00;;;3.43;;
75441;SDS011;64019;48.312;14.226;2023-02-01T05:43:45;5.13;;;3.20;;
75441;SDS011;64019;48.312;14.226;2023-02-01T05:46:11;8.53;;;3.77;;
75441;SDS011;64019;48.312;14.226;2023-02-01T05:48:41;4.70;;;3.30;;
75441;SDS011;64019;48.312;14.226;2023-02-01T05:51:07;5.73;;;3.00;;
75441;SDS011;64019;48.312;14.226;2023-02-01T05:53:33;5.27;;;3.03;;
75441;SDS011;64019;48.312;14.226;2023-02-01T05:55:59;4.47;;;2.93;;
75441;SDS011;64019;48.312;14.226;2023-02-01T05:58:24;5.07;;;3.13;;
75441;SDS011;64019;48.312;14.226;2023-02-01T06:00:50;4.63;;;3.20;;
75441;SDS011;64019;48.312;14.226;2023-02-01T06:03:16;6.87;;;3.23;;
75441;SDS011;64019;48.312;14.226;2023-02-01T06:05:44;5.40;;;3.20;;
75441;SDS011;64019;48.312;14.226;2023-02-01T06:08:10;8.00;;;3.73;;
75441;SDS011;64019;48.312;14.226;2023-02-01T06:10:36;6.43;;;3.47;;
75441;SDS011;64019;48.312;14.226;2023-02-01T06:13:02;5.20;;;3.20;;
75441;SDS011;64019;48.312;14.226;2023-02-01T06:15:28;5.90;;;2.80;;
75441;SDS011;64019;48.312;14.226;2023-02-01T06:17:54;5.17;;;3.30;;
75441;SDS011;64019;48.312;14.226;2023-02-01T06:20:20;5.33;;;3.60;;
75441;SDS011;64019;48.312;14.226;2023-02-01T06:22:46;6.73;;;3.40;;
75441;SDS011;64019;48.312;14.226;2023-02-01T06:25:12;4.87;;;3.17;;
75441;SDS011;64019;48.312;14.226;2023-02-01T06:27:37;6.33;;;3.67;;
75441;SDS011;64019;48.312;14.226;2023-02-01T06:30:04;5.67;;;3.10;;
75441;SDS011;64019;48.312;14.226;2023-02-01T06:32:30;7.13;;;3.13;;
75441;SDS011;64019;48.312;14.226;2023-02-01T06:34:56;5.80;;;3.47;;
75441;SDS011;64019;48.312;14.226;2023-02-01T06:37:22;6.40;;;3.20;;
75441;SDS011;64019;48.312;14.226;2023-02-01T06:39:50;7.50;;;3.87;;
75441;SDS011;64019;48.312;14.226;2023-02-01T06:42:15;5.97;;;3.50;;
75441;SDS011;64019;48.312;14.226;2023-02-01T06:44:41;6.97;;;3.10;;
75441;SDS011;64019;48.312;14.226;2023-02-01T06:47:07;6.97;;;3.23;;
75441;SDS011;64019;48.312;14.226;2023-02-01T06:49:32;6.13;;;3.37;;
75441;SDS011;64019;48.312;14.226;2023-02-01T06:51:58;6.43;;;3.10;;
75441;SDS011;64019;48.312;14.226;2023-02-01T06:54:27;6.87;;;3.30;;
75441;SDS011;64019;48.312;14.226;2023-02-01T06:56:53;8.63;;;3.20;;
75441;SDS011;64019;48.312;14.226;2023-02-01T06:59:18;4.40;;;2.90;;
75441;SDS011;64019;48.312;14.226;2023-02-01T07:01:44;5.43;;;3.03;;
75441;SDS011;64019;48.312;14.226;2023-02-01T07:04:10;4.43;;;2.60;;
75441;SDS011;64019;48.312;14.226;2023-02-01T07:06:37;8.07;;;3.03;;
75441;SDS011;64019;48.312;14.226;2023-02-01T07:09:03;9.13;;;3.10;;
75441;SDS011;64019;48.312;14.226;2023-02-01T07:11:29;7.30;;;3.07;;
75441;SDS011;64019;48.312;14.226;2023-02-01T07:13:55;5.30;;;3.30;;
75441;SDS011;64019;48.312;14.226;2023-02-01T07:16:21;6.87;;;2.70;;
75441;SDS011;64019;48.312;14.226;2023-02-01T07:18:47;6.63;;;3.30;;
75441;SDS011;64019;48.312;14.226;2023-02-01T07:21:14;8.77;;;4.00;;
75441;SDS011;64019;48.312;14.226;2023-02-01T07:23:40;5.67;;;3.20;;
75441;SDS011;64019;48.312;14.226;2023-02-01T07:26:06;4.67;;;3.20;;
75441;SDS011;64019;48.312;14.226;2023-02-01T07:28:35;6.60;;;3.60;;
75441;SDS011;64019;48.312;14.226;2023-02-01T07:33:30;4.90;;;2.90;;
75441;SDS011;64019;48.312;14.226;2023-02-01T07:35:56;3.67;;;2.87;;
75441;SDS011;64019;48.312;14.226;2023-02-01T07:38:22;5.20;;;3.07;;
75441;SDS011;64019;48.312;14.226;2023-02-01T07:40:48;4.80;;;3.07;;
75441;SDS011;64019;48.312;14.226;2023-02-01T07:43:14;6.10;;;3.20;;
75441;SDS011;64019;48.312;14.226;2023-02-01T07:45:41;6.63;;;3.00;;
75441;SDS011;64019;48.312;14.226;2023-02-01T07:48:06;4.77;;;3.07;;
75441;SDS011;64019;48.312;14.226;2023-02-01T07:50:32;5.30;;;2.87;;
75441;SDS011;64019;48.312;14.226;2023-02-01T07:52:58;4.87;;;2.90;;
75441;SDS011;64019;48.312;14.226;2023-02-01T07:55:25;5.30;;;3.13;;
75441;SDS011;64019;48.312;14.226;2023-02-01T07:57:51;4.67;;;2.77;;
75441;SDS011;64019;48.312;14.226;2023-02-01T08:00:17;7.17;;;2.90;;
75441;SDS011;64019;48.312;14.226;2023-02-01T08:03:03;7.20;;;3.30;;
75441;SDS011;64019;48.312;14.226;2023-02-01T08:05:29;4.97;;;2.93;;
75441;SDS011;64019;48.312;14.226;2023-02-01T08:07:54;5.97;;;3.20;;
75441;SDS011;64019;48.312;14.226;2023-02-01T08:10:20;7.10;;;2.87;;
75441;SDS011;64019;48.312;14.226;2023-02-01T08:12:45;4.13;;;2.73;;
75441;SDS011;64019;48.312;14.226;2023-02-01T08:15:16;6.00;;;2.90;;
75441;SDS011;64019;48.312;14.226;2023-02-01T08:17:51;6.63;;;2.80;;
75441;SDS011;64019;48.312;14.226;2023-02-01T08:20:18;3.60;;;2.50;;
75441;SDS011;64019;48.312;14.226;2023-02-01T08:22:44;4.80;;;2.53;;
75441;SDS011;64019;48.312;14.226;2023-02-01T08:25:10;5.37;;;2.57;;
75441;SDS011;64019;48.312;14.226;2023-02-01T08:27:36;5.77;;;3.20;;
75441;SDS011;64019;48.312;14.226;2023-02-01T08:30:03;4.97;;;2.43;;
75441;SDS011;64019;48.312;14.226;2023-02-01T08:32:29;4.77;;;2.60;;
75441;SDS011;64019;48.312;14.226;2023-02-01T08:34:55;5.07;;;2.70;;
75441;SDS011;64019;48.312;14.226;2023-02-01T08:37:21;5.83;;;2.33;;
75441;SDS011;64019;48.312;14.226;2023-02-01T08:39:47;5.40;;;2.67;;
75441;SDS011;64019;48.312;14.226;2023-02-01T08:42:15;5.07;;;2.63;;
75441;SDS011;64019;48.312;14.226;2023-02-01T08:45:00;5.13;;;2.33;;
75441;SDS011;64019;48.312;14.226;2023-02-01T08:47:27;6.87;;;2.67;;
75441;SDS011;64019;48.312;14.226;2023-02-01T08:49:53;4.00;;;2.23;;
75441;SDS011;64019;48.312;14.226;2023-02-01T08:52:19;4.23;;;2.63;;
75441;SDS011;64019;48.312;14.226;2023-02-01T08:54:44;4.80;;;2.67;;
75441;SDS011;64019;48.312;14.226;2023-02-01T08:57:10;9.80;;;3.00;;
75441;SDS011;64019;48.312;14.226;2023-02-01T08:59:36;4.33;;;2.10;;
75441;SDS011;64019;48.312;14.226;2023-02-01T09:02:01;9.50;;;4.53;;
75441;SDS011;64019;48.312;14.226;2023-02-01T09:04:27;6.57;;;2.97;;
75441;SDS011;64019;48.312;14.226;2023-02-01T09:06:53;7.13;;;3.30;;
75441;SDS011;64019;48.312;14.226;2023-02-01T09:09:20;6.57;;;3.20;;
75441;SDS011;64019;48.312;14.226;2023-02-01T09:11:46;4.87;;;2.80;;
75441;SDS011;64019;48.312;14.226;2023-02-01T09:14:12;6.43;;;2.80;;
75441;SDS011;64019;48.312;14.226;2023-02-01T09:16:38;6.33;;;3.10;;
75441;SDS011;64019;48.312;14.226;2023-02-01T09:19:03;6.33;;;2.80;;
75441;SDS011;64019;48.312;14.226;2023-02-01T09:21:29;5.93;;;3.53;;
75441;SDS011;64019;48.312;14.226;2023-02-01T09:23:54;5.30;;;2.60;;
75441;SDS011;64019;48.312;14.226;2023-02-01T09:26:21;5.90;;;2.37;;
75441;SDS011;64019;48.312;14.226;2023-02-01T09:28:46;3.57;;;2.20;;
75441;SDS011;64019;48.312;14.226;2023-02-01T09:31:12;4.70;;;2.30;;
75441;SDS011;64019;48.312;14.226;2023-02-01T09:33:38;5.40;;;2.70;;
75441;SDS011;64019;48.312;14.226;2023-02-01T09:36:05;6.83;;;2.93;;
75441;SDS011;64019;48.312;14.226;2023-02-01T09:38:31;7.50;;;3.00;;
75441;SDS011;64019;48.312;14.226;2023-02-01T09:40:57;5.87;;;2.60;;
75441;SDS011;64019;48.312;14.226;2023-02-01T09:46:23;5.30;;;2.63;;
75441;SDS011;64019;48.312;14.226;2023-02-01T09:48:55;6.63;;;2.77;;
75441;SDS011;64019;48.312;14.226;2023-02-01T09:51:25;3.67;;;2.43;;
75441;SDS011;64019;48.312;14.226;2023-02-01T09:54:00;4.73;;;2.90;;
75441;SDS011;64019;48.312;14.226;2023-02-01T09:56:39;4.87;;;2.40;;
75441;SDS011;64019;48.312;14.226;2023-02-01T10:01:53;6.10;;;3.00;;
75441;SDS011;64019;48.312;14.226;2023-02-01T10:04:19;5.50;;;2.53;;
75441;SDS011;64019;48.312;14.226;2023-02-01T10:20:34;4.93;;;2.47;;
75441;SDS011;64019;48.312;14.226;2023-02-01T10:26:20;5.63;;;3.07;;
75441;SDS011;64019;48.312;14.226;2023-02-01T10:28:49;6.33;;;2.43;;
75441;SDS011;64019;48.312;14.226;2023-02-01T10:31:17;4.83;;;2.60;;
75441;SDS011;64019;48.312;14.226;2023-02-01T10:33:55;10.70;;;3.23;;
75441;SDS011;64019;48.312;14.226;2023-02-01T10:38:55;6.13;;;3.07;;
75441;SDS011;64019;48.312;14.226;2023-02-01T10:41:30;7.03;;;3.30;;
75441;SDS011;64019;48.312;14.226;2023-02-01T10:44:02;6.00;;;3.03;;
75441;SDS011;64019;48.312;14.226;2023-02-01T10:46:31;6.03;;;3.33;;
75441;SDS011;64019;48.312;14.226;2023-02-01T10:48:58;3.97;;;2.53;;
75441;SDS011;64019;48.312;14.226;2023-02-01T10:51:28;6.87;;;2.60;;
75441;SDS011;64019;48.312;14.226;2023-02-01T10:54:03;4.57;;;2.67;;
75441;SDS011;64019;48.312;14.226;2023-02-01T10:56:41;3.97;;;2.30;;
75441;SDS011;64019;48.312;14.226;2023-02-01T10:59:17;3.10;;;2.00;;
75441;SDS011;64019;48.312;14.226;2023-02-01T11:01:45;5.83;;;2.43;;
75441;SDS011;64019;48.312;14.226;2023-02-01T11:04:14;4.27;;;2.40;;
75441;SDS011;64019;48.312;14.226;2023-02-01T11:06:45;5.77;;;2.03;;
75441;SDS011;64019;48.312;14.226;2023-02-01T11:09:21;3.33;;;1.57;;
75441;SDS011;64019;48.312;14.226;2023-02-01T11:14:18;6.40;;;1.87;;
75441;SDS011;64019;48.312;14.226;2023-02-01T11:16:54;3.80;;;1.20;;
75441;SDS011;64019;48.312;14.226;2023-02-01T11:19:22;5.53;;;1.63;;
75441;SDS011;64019;48.312;14.226;2023-02-01T11:21:49;8.57;;;1.77;;
75441;SDS011;64019;48.312;14.226;2023-02-01T11:24:31;6.23;;;1.50;;
75441;SDS011;64019;48.312;14.226;2023-02-01T11:27:01;5.33;;;1.60;;
75441;SDS011;64019;48.312;14.226;2023-02-01T11:29:30;3.13;;;1.70;;
75441;SDS011;64019;48.312;14.226;2023-02-01T11:32:02;5.57;;;1.93;;
75441;SDS011;64019;48.312;14.226;2023-02-01T11:37:23;2.97;;;1.90;;
75441;SDS011;64019;48.312;14.226;2023-02-01T11:39:56;6.33;;;2.20;;
75441;SDS011;64019;48.312;14.226;2023-02-01T11:42:24;2.97;;;1.77;;
75441;SDS011;64019;48.312;14.226;2023-02-01T11:44:51;4.53;;;2.07;;
75441;SDS011;64019;48.312;14.226;2023-02-01T11:47:53;4.63;;;2.07;;
75441;SDS011;64019;48.312;14.226;2023-02-01T11:50:25;7.67;;;2.40;;
75441;SDS011;64019;48.312;14.226;2023-02-01T12:08:44;7.00;;;3.70;;
75441;SDS011;64019;48.312;14.226;2023-02-01T12:11:35;7.17;;;3.23;;
75441;SDS011;64019;48.312;14.226;2023-02-01T12:19:11;6.33;;;2.67;;
75441;SDS011;64019;48.312;14.226;2023-02-01T12:22:17;6.23;;;3.37;;
75441;SDS011;64019;48.312;14.226;2023-02-01T12:33:04;5.77;;;2.93;;
75441;SDS011;64019;48.312;14.226;2023-02-01T12:35:47;7.27;;;3.23;;
75441;SDS011;64019;48.312;14.226;2023-02-01T12:38:50;5.00;;;2.60;;
75441;SDS011;64019;48.312;14.226;2023-02-01T12:41:29;8.77;;;3.20;;
75441;SDS011;64019;48.312;14.226;2023-02-01T12:44:02;4.97;;;2.60;;
75441;SDS011;64019;48.312;14.226;2023-02-01T12:46:37;4.60;;;2.53;;
75441;SDS011;64019;48.312;14.226;2023-02-01T12:49:50;6.30;;;2.53;;
75441;SDS011;64019;48.312;14.226;2023-02-01T12:52:30;3.07;;;2.10;;
75441;SDS011;64019;48.312;14.226;2023-02-01T12:55:14;4.63;;;1.93;;
75441;SDS011;64019;48.312;14.226;2023-02-01T12:58:04;3.00;;;2.07;;
75441;SDS011;64019;48.312;14.226;2023-02-01T13:00:34;4.47;;;1.80;;
75441;SDS011;64019;48.312;14.226;2023-02-01T13:05:55;2.90;;;1.90;;
75441;SDS011;64019;48.312;14.226;2023-02-01T13:08:43;2.53;;;1.97;;
75441;SDS011;64019;48.312;14.226;2023-02-01T13:14:00;4.63;;;1.87;;
75441;SDS011;64019;48.312;14.226;2023-02-01T13:16:38;3.93;;;1.30;;
75441;SDS011;64019;48.312;14.226;2023-02-01T13:19:28;2.13;;;1.40;;
75441;SDS011;64019;48.312;14.226;2023-02-01T13:22:09;3.90;;;1.30;;
75441;SDS011;64019;48.312;14.226;2023-02-01T13:24:46;1.80;;;1.30;;
75441;SDS011;64019;48.312;14.226;2023-02-01T13:27:16;4.17;;;1.07;;
75441;SDS011;64019;48.312;14.226;2023-02-01T13:29:54;5.60;;;1.43;;
75441;SDS011;64019;48.312;14.226;2023-02-01T13:35:31;3.27;;;1.23;;
75441;SDS011;64019;48.312;14.226;2023-02-01T13:40:59;4.07;;;1.57;;
75441;SDS011;64019;48.312;14.226;2023-02-01T13:43:52;3.07;;;1.43;;
75441;SDS011;64019;48.312;14.226;2023-02-01T13:46:44;2.87;;;1.50;;
75441;SDS011;64019;48.312;14.226;2023-02-01T13:49:22;3.43;;;1.50;;
75441;SDS011;64019;48.312;14.226;2023-02-01T13:51:52;2.60;;;1.20;;
75441;SDS011;64019;48.312;14.226;2023-02-01T13:56:51;5.00;;;2.10;;
75441;SDS011;64019;48.312;14.226;2023-02-01T14:05:02;5.60;;;1.97;;
75441;SDS011;64019;48.312;14.226;2023-02-01T14:07:29;3.13;;;1.80;;
75441;SDS011;64019;48.312;14.226;2023-02-01T14:09:55;4.23;;;1.83;;
75441;SDS011;64019;48.312;14.226;2023-02-01T14:15:24;5.50;;;2.30;;
75441;SDS011;64019;48.312;14.226;2023-02-01T14:17:53;6.07;;;2.10;;
75441;SDS011;64019;48.312;14.226;2023-02-01T14:23:38;5.80;;;2.20;;
75441;SDS011;64019;48.312;14.226;2023-02-01T14:26:07;4.17;;;2.23;;
75441;SDS011;64019;48.312;14.226;2023-02-01T14:28:36;5.23;;;2.13;;
75441;SDS011;64019;48.312;14.226;2023-02-01T14:34:11;5.37;;;2.43;;
75441;SDS011;64019;48.312;14.226;2023-02-01T14:36:46;5.70;;;2.27;;
75441;SDS011;64019;48.312;14.226;2023-02-01T14:39:26;3.40;;;2.30;;
75441;SDS011;64019;48.312;14.226;2023-02-01T14:41:56;7.50;;;2.80;;
75441;SDS011;64019;48.312;14.226;2023-02-01T14:44:28;5.23;;;2.50;;
75441;SDS011;64019;48.312;14.226;2023-02-01T14:49:50;6.03;;;2.60;;
75441;SDS011;64019;48.312;14.226;2023-02-01T14:52:23;5.90;;;2.53;;
75441;SDS011;64019;48.312;14.226;2023-02-01T14:55:18;11.13;;;2.60;;
75441;SDS011;64019;48.312;14.226;2023-02-01T14:57:53;6.47;;;2.80;;
75441;SDS011;64019;48.312;14.226;2023-02-01T15:00:26;9.03;;;3.13;;
75441;SDS011;64019;48.312;14.226;2023-02-01T15:02:54;6.30;;;2.53;;
75441;SDS011;64019;48.312;14.226;2023-02-01T15:05:34;3.57;;;2.20;;
75441;SDS011;64019;48.312;14.226;2023-02-01T15:08:05;6.83;;;2.73;;
75441;SDS011;64019;48.312;14.226;2023-02-01T15:10:40;7.30;;;2.83;;
75441;SDS011;64019;48.312;14.226;2023-02-01T15:13:17;5.97;;;2.53;;
75441;SDS011;64019;48.312;14.226;2023-02-01T15:16:21;5.63;;;2.43;;
75441;SDS011;64019;48.312;14.226;2023-02-01T15:18:40;6.67;;;2.90;;
75441;SDS011;64019;48.312;14.226;2023-02-01T15:21:13;7.33;;;2.87;;
75441;SDS011;64019;48.312;14.226;2023-02-01T15:23:47;5.03;;;2.77;;
75441;SDS011;64019;48.312;14.226;2023-02-01T15:26:29;8.73;;;2.93;;
75441;SDS011;64019;48.312;14.226;2023-02-01T15:28:57;6.27;;;2.87;;
75441;SDS011;64019;48.312;14.226;2023-02-01T15:31:40;7.90;;;3.00;;
75441;SDS011;64019;48.312;14.226;2023-02-01T15:34:08;5.47;;;2.67;;
75441;SDS011;64019;48.312;14.226;2023-02-01T15:36:34;6.37;;;2.13;;
75441;SDS011;64019;48.312;14.226;2023-02-01T15:39:18;4.40;;;2.20;;
75441;SDS011;64019;48.312;14.226;2023-02-01T15:41:57;6.60;;;2.40;;
75441;SDS011;64019;48.312;14.226;2023-02-01T15:47:17;7.77;;;2.20;;
75441;SDS011;64019;48.312;14.226;2023-02-01T15:49:50;4.33;;;2.00;;
75441;SDS011;64019;48.312;14.226;2023-02-01T15:54:57;9.57;;;2.03;;
75441;SDS011;64019;48.312;14.226;2023-02-01T15:57:29;5.40;;;1.97;;
75441;SDS011;64019;48.312;14.226;2023-02-01T16:00:00;7.27;;;1.70;;
75441;SDS011;64019;48.312;14.226;2023-02-01T16:02:33;8.93;;;2.37;;
75441;SDS011;64019;48.312;14.226;2023-02-01T16:05:21;3.93;;;2.30;;
75441;SDS011;64019;48.312;14.226;2023-02-01T16:08:12;10.07;;;2.50;;
75441;SDS011;64019;48.312;14.226;2023-02-01T16:10:50;8.73;;;2.37;;
75441;SDS011;64019;48.312;14.226;2023-02-01T16:13:18;5.50;;;2.10;;
75441;SDS011;64019;48.312;14.226;2023-02-01T16:15:48;10.30;;;2.63;;
75441;SDS011;64019;48.312;14.226;2023-02-01T16:18:14;7.57;;;2.70;;
75441;SDS011;64019;48.312;14.226;2023-02-01T16:20:41;7.40;;;2.27;;
75441;SDS011;64019;48.312;14.226;2023-02-01T16:23:07;8.77;;;2.73;;
75441;SDS011;64019;48.312;14.226;2023-02-01T16:25:34;6.67;;;2.27;;
75441;SDS011;64019;48.312;14.226;2023-02-01T16:28:00;7.97;;;2.43;;
75441;SDS011;64019;48.312;14.226;2023-02-01T16:30:26;7.40;;;2.10;;
75441;SDS011;64019;48.312;14.226;2023-02-01T16:32:52;9.40;;;2.37;;
75441;SDS011;64019;48.312;14.226;2023-02-01T16:35:28;4.73;;;2.40;;
75441;SDS011;64019;48.312;14.226;2023-02-01T16:38:04;8.97;;;2.30;;
75441;SDS011;64019;48.312;14.226;2023-02-01T16:40:37;7.53;;;2.27;;
75441;SDS011;64019;48.312;14.226;2023-02-01T16:43:05;5.40;;;2.23;;
75441;SDS011;64019;48.312;14.226;2023-02-01T16:45:44;3.93;;;1.97;;
75441;SDS011;64019;48.312;14.226;2023-02-01T16:48:20;8.57;;;2.33;;
75441;SDS011;64019;48.312;14.226;2023-02-01T16:50:54;7.87;;;2.40;;
75441;SDS011;64019;48.312;14.226;2023-02-01T16:53:26;6.43;;;2.37;;
75441;SDS011;64019;48.312;14.226;2023-02-01T16:55:54;8.27;;;2.90;;
75441;SDS011;64019;48.312;14.226;2023-02-01T16:58:22;9.93;;;2.07;;
75441;SDS011;64019;48.312;14.226;2023-02-01T17:00:48;10.37;;;2.57;;
75441;SDS011;64019;48.312;14.226;2023-02-01T17:03:15;6.13;;;2.33;;
75441;SDS011;64019;48.312;14.226;2023-02-01T17:06:00;7.77;;;2.20;;
75441;SDS011;64019;48.312;14.226;2023-02-01T17:08:29;8.53;;;2.07;;
75441;SDS011;64019;48.312;14.226;2023-02-01T17:10:58;7.37;;;2.00;;
75441;SDS011;64019;48.312;14.226;2023-02-01T17:13:24;8.80;;;2.20;;
75441;SDS011;64019;48.312;14.226;2023-02-01T17:15:54;7.10;;;1.70;;
75441;SDS011;64019;48.312;14.226;2023-02-01T17:18:26;4.27;;;1.87;;
75441;SDS011;64019;48.312;14.226;2023-02-01T17:20:56;4.43;;;1.80;;
75441;SDS011;64019;48.312;14.226;2023-02-01T17:23:22;8.97;;;1.87;;
75441;SDS011;64019;48.312;14.226;2023-02-01T17:25:48;5.40;;;2.27;;
75441;SDS011;64019;48.312;14.226;2023-02-01T17:28:14;9.70;;;2.43;;
75441;SDS011;64019;48.312;14.226;2023-02-01T17:30:40;11.17;;;2.10;;
75441;SDS011;64019;48.312;14.226;2023-02-01T17:36:02;7.40;;;1.97;;
75441;SDS011;64019;48.312;14.226;2023-02-01T17:38:29;11.63;;;2.13;;
75441;SDS011;64019;48.312;14.226;2023-02-01T17:40:55;5.67;;;2.00;;
75441;SDS011;64019;48.312;14.226;2023-02-01T17:43:22;6.23;;;1.63;;
75441;SDS011;64019;48.312;14.226;2023-02-01T17:45:52;3.87;;;1.80;;
75441;SDS011;64019;48.312;14.226;2023-02-01T17:48:22;5.23;;;1.60;;
75441;SDS011;64019;48.312;14.226;2023-02-01T17:50:49;5.90;;;1.53;;
75441;SDS011;64019;48.312;14.226;2023-02-01T17:53:18;7.60;;;1.97;;
75441;SDS011;64019;48.312;14.226;2023-02-01T17:55:48;3.40;;;1.43;;
75441;SDS011;64019;48.312;14.226;2023-02-01T17:58:14;3.60;;;1.80;;
75441;SDS011;64019;48.312;14.226;2023-02-01T18:00:41;7.20;;;1.67;;
75441;SDS011;64019;48.312;14.226;2023-02-01T18:03:29;3.20;;;1.53;;
75441;SDS011;64019;48.312;14.226;2023-02-01T18:05:55;6.27;;;1.40;;
75441;SDS011;64019;48.312;14.226;2023-02-01T18:08:25;4.70;;;1.57;;
75441;SDS011;64019;48.312;14.226;2023-02-01T18:10:53;7.00;;;1.53;;
75441;SDS011;64019;48.312;14.226;2023-02-01T18:13:23;5.37;;;1.90;;
75441;SDS011;64019;48.312;14.226;2023-02-01T18:15:49;5.43;;;1.70;;
75441;SDS011;64019;48.312;14.226;2023-02-01T18:18:15;3.13;;;1.20;;
75441;SDS011;64019;48.312;14.226;2023-02-01T18:20:41;5.93;;;1.60;;
75441;SDS011;64019;48.312;14.226;2023-02-01T18:23:41;4.90;;;1.37;;
75441;SDS011;64019;48.312;14.226;2023-02-01T18:25:59;8.83;;;1.20;;
75441;SDS011;64019;48.312;14.226;2023-02-01T18:28:25;3.70;;;1.63;;
75441;SDS011;64019;48.312;14.226;2023-02-01T18:30:51;9.73;;;1.60;;
75441;SDS011;64019;48.312;14.226;2023-02-01T18:33:17;6.67;;;2.20;;
75441;SDS011;64019;48.312;14.226;2023-02-01T18:35:44;5.47;;;1.40;;
75441;SDS011;64019;48.312;14.226;2023-02-01T18:38:10;8.20;;;1.80;;
75441;SDS011;64019;48.312;14.226;2023-02-01T18:40:57;3.13;;;1.30;;
75441;SDS011;64019;48.312;14.226;2023-02-01T18:43:22;7.83;;;1.40;;
75441;SDS011;64019;48.312;14.226;2023-02-01T18:45:48;4.67;;;1.67;;
75441;SDS011;64019;48.312;14.226;2023-02-01T18:48:14;2.13;;;1.33;;
75441;SDS011;64019;48.312;14.226;2023-02-01T18:50:42;4.77;;;1.10;;
75441;SDS011;64019;48.312;14.226;2023-02-01T18:53:15;3.23;;;1.60;;
75441;SDS011;64019;48.312;14.226;2023-02-01T18:55:47;5.83;;;1.43;;
75441;SDS011;64019;48.312;14.226;2023-02-01T18:58:14;4.90;;;1.17;;
75441;SDS011;64019;48.312;14.226;2023-02-01T19:00:41;5.47;;;1.90;;
75441;SDS011;64019;48.312;14.226;2023-02-01T19:03:10;7.70;;;2.13;;
75441;SDS011;64019;48.312;14.226;2023-02-01T19:05:36;2.27;;;1.30;;
75441;SDS011;64019;48.312;14.226;2023-02-01T19:08:02;7.30;;;1.70;;
75441;SDS011;64019;48.312;14.226;2023-02-01T19:10:28;4.00;;;1.30;;
75441;SDS011;64019;48.312;14.226;2023-02-01T19:12:54;6.97;;;1.67;;
75441;SDS011;64019;48.312;14.226;2023-02-01T19:15:20;5.27;;;1.20;;
75441;SDS011;64019;48.312;14.226;2023-02-01T19:17:47;10.03;;;1.80;;
75441;SDS011;64019;48.312;14.226;2023-02-01T19:20:16;5.27;;;1.83;;
75441;SDS011;64019;48.312;14.226;2023-02-01T19:22:44;6.10;;;1.40;;
75441;SDS011;64019;48.312;14.226;2023-02-01T19:25:14;8.40;;;1.90;;
75441;SDS011;64019;48.312;14.226;2023-02-01T19:27:42;10.17;;;1.87;;
75441;SDS011;64019;48.312;14.226;2023-02-01T19:30:09;5.33;;;1.63;;
75441;SDS011;64019;48.312;14.226;2023-02-01T19:32:36;4.37;;;1.90;;
75441;SDS011;64019;48.312;14.226;2023-02-01T19:35:02;4.20;;;1.83;;
75441;SDS011;64019;48.312;14.226;2023-02-01T19:37:29;11.07;;;2.00;;
75441;SDS011;64019;48.312;14.226;2023-02-01T19:39:55;5.80;;;1.60;;
75441;SDS011;64019;48.312;14.226;2023-02-01T19:42:23;7.93;;;1.43;;
75441;SDS011;64019;48.312;14.226;2023-02-01T19:44:49;5.07;;;1.70;;
75441;SDS011;64019;48.312;14.226;2023-02-01T19:47:15;2.43;;;1.33;;
75441;SDS011;64019;48.312;14.226;2023-02-01T19:49:40;5.00;;;1.50;;
75441;SDS011;64019;48.312;14.226;2023-02-01T19:52:06;9.27;;;2.27;;
75441;SDS011;64019;48.312;14.226;2023-02-01T19:54:32;6.90;;;1.97;;
75441;SDS011;64019;48.312;14.226;2023-02-01T19:56:57;9.70;;;2.07;;
75441;SDS011;64019;48.312;14.226;2023-02-01T19:59:23;9.57;;;2.50;;
75441;SDS011;64019;48.312;14.226;2023-02-01T20:01:50;7.43;;;2.10;;
75441;SDS011;64019;48.312;14.226;2023-02-01T20:04:16;7.40;;;1.97;;
75441;SDS011;64019;48.312;14.226;2023-02-01T20:06:43;9.90;;;1.47;;
75441;SDS011;64019;48.312;14.226;2023-02-01T20:09:23;5.97;;;1.97;;
75441;SDS011;64019;48.312;14.226;2023-02-01T20:11:52;3.47;;;1.80;;
75441;SDS011;64019;48.312;14.226;2023-02-01T20:14:19;12.40;;;1.67;;
75441;SDS011;64019;48.312;14.226;2023-02-01T20:16:49;7.37;;;1.87;;
75441;SDS011;64019;48.312;14.226;2023-02-01T20:19:15;4.93;;;1.67;;
75441;SDS011;64019;48.312;14.226;2023-02-01T20:21:41;5.23;;;2.00;;
75441;SDS011;64019;48.312;14.226;2023-02-01T20:24:07;3.60;;;1.20;;
75441;SDS011;64019;48.312;14.226;2023-02-01T20:26:33;7.07;;;1.83;;
75441;SDS011;64019;48.312;14.226;2023-02-01T20:28:59;4.87;;;1.53;;
75441;SDS011;64019;48.312;14.226;2023-02-01T20:31:26;8.17;;;2.20;;
75441;SDS011;64019;48.312;14.226;2023-02-01T20:33:54;4.80;;;1.63;;
75441;SDS011;64019;48.312;14.226;2023-02-01T20:36:20;8.60;;;2.10;;